Virot — EAGV — position and weather

sailwx.info

Track history (hours):
 
Tides and Currents Weather Stations Pressure Air Temp Water Temp Dewpoint Dewpoint Depression Visibility Wind Speed Wind Dir Waves Ship Positions

Virot

Last reported at 2018-Jun-21 18:49 UTC. Time now 2018-Jun-21 19:58 UTC.
Position N 38°53' E 001°26'.

Length 64 m; draft 3.1 m.

Type: Ship. MMSI: 224810000.

Date/timePositionNaut miles runAvg speedWind from/ knotsBaromVisibWave heightAir tempDewpointWater temp
2018-Jun-21 18:49N 38°53' E 001°26'411.6
2018-Jun-21 18:26N 38°49' E 001°25'4 9.5
2018-Jun-21 17:58N 38°53' E 001°26'1 0.5
2018-Jun-21 15:21N 38°54' E 001°27'0 0.1
2018-Jun-21 12:25N 38°54' E 001°27'0 0.7
2018-Jun-21 11:55N 38°54' E 001°27'0 0.0
2018-Jun-21 09:25N 38°54' E 001°27'0 0.0
2018-Jun-21 05:43N 38°54' E 001°27'0 0.0
2018-Jun-20 21:39N 38°54' E 001°27'3 0.7
2018-Jun-20 18:04N 38°52' E 001°26'2 9.3
2018-Jun-20 17:54N 38°53' E 001°27'1 1.0
2018-Jun-20 16:50N 38°54' E 001°27'0 0.0
2018-Jun-20 15:20N 38°54' E 001°27'2 6.1
2018-Jun-20 14:57N 38°52' E 001°26'2 0.7
2018-Jun-20 11:47N 38°54' E 001°27'0 0.0
2018-Jun-20 10:14N 38°54' E 001°27'0 0.5
2018-Jun-20 09:15N 38°54' E 001°27'5 2.3
2018-Jun-20 06:54N 38°49' E 001°25'4 9.6
2018-Jun-20 06:26N 38°53' E 001°27'1 2.4
2018-Jun-20 05:55N 38°54' E 001°27'3 0.3
2018-Jun-19 18:03N 38°51' E 001°26'1 9.9
2018-Jun-19 17:59N 38°52' E 001°26'3 4.7
2018-Jun-19 17:27N 38°54' E 001°27'0 0.0
2018-Jun-19 17:01N 38°54' E 001°27'0 0.0
2018-Jun-19 16:28N 38°54' E 001°27'0 0.0
2018-Jun-19 16:00N 38°54' E 001°27'0 0.0
2018-Jun-19 15:30N 38°54' E 001°27'3 5.4
2018-Jun-19 14:58N 38°51' E 001°26'3 1.7
2018-Jun-19 13:09N 38°49' E 001°25'2 8.9
2018-Jun-19 12:53N 38°51' E 001°26'4 8.8
2018-Jun-19 12:29N 38°54' E 001°27'0 0.5
2018-Jun-19 11:58N 38°54' E 001°27'0 0.0
2018-Jun-19 11:20N 38°54' E 001°27'0 0.0
2018-Jun-19 10:58N 38°54' E 001°27'0 0.0
2018-Jun-19 10:29N 38°54' E 001°27'0 0.0
2018-Jun-19 09:58N 38°54' E 001°27'0 0.0
2018-Jun-19 09:28N 38°54' E 001°27'2 4.5
2018-Jun-19 09:00N 38°52' E 001°26'1 0.2
2018-Jun-19 06:34N 38°52' E 001°26'1 9.6
2018-Jun-19 06:29N 38°53' E 001°26'2 3.8
2018-Jun-19 06:00N 38°54' E 001°27'0 0.0
2018-Jun-19 05:27N 38°54' E 001°27'0 0.0
2018-Jun-18 21:38N 38°54' E 001°27'0 0.9
2018-Jun-18 21:23N 38°54' E 001°27'10 4.0
2018-Jun-18 18:55N 38°44' E 001°25'4 8.8
2018-Jun-18 18:24N 38°49' E 001°25'5 9.4
2018-Jun-18 17:55N 38°53' E 001°27'1 1.2
2018-Jun-18 17:06N 38°54' E 001°27'0 0.0
2018-Jun-18 17:00N 38°54' E 001°27'0 0.0
2018-Jun-18 16:26N 38°54' E 001°27'0 0.0
2018-Jun-18 16:00N 38°54' E 001°27'0 0.1
2018-Jun-18 15:12N 38°54' E 001°27'10 6.2
2018-Jun-18 13:33N 38°44' E 001°25'0 5.1
2018-Jun-18 13:30N 38°44' E 001°25'5 9.2
2018-Jun-18 12:57N 38°49' E 001°26'3 0.4
2018-Jun-18 06:18N 38°52' E 001°26'2 7.6
2018-Jun-18 06:00N 38°54' E 001°27'8 0.2
2018-Jun-16 08:18N 38°46' E 001°24'2 0.1
2018-Jun-15 18:37N 38°45' E 001°25'0 3.4
2018-Jun-15 18:29N 38°44' E 001°25'2 4.0
2018-Jun-15 17:58N 38°46' E 001°24'4 9.2
2018-Jun-15 17:29N 38°50' E 001°26'2 0.1
2018-Jun-14 06:42N 38°49' E 001°25'3 9.7
2018-Jun-14 06:27N 38°51' E 001°26'3 0.3
2018-Jun-13 21:20N 38°54' E 001°27'2 0.6
2018-Jun-13 18:05N 38°52' E 001°26'3 3.0
2018-Jun-13 17:15N 38°54' E 001°27'1 0.4
2018-Jun-13 15:09N 38°53' E 001°27'1 0.5
2018-Jun-13 12:47N 38°52' E 001°26'2 1.6
2018-Jun-13 11:26N 38°54' E 001°27'0 0.0
2018-Jun-13 10:47N 38°54' E 001°27'0 0.0
2018-Jun-13 10:17N 38°54' E 001°27'0 0.0
2018-Jun-13 09:47N 38°54' E 001°27'3 0.9
2018-Jun-13 06:23N 38°51' E 001°26'2 0.2
2018-Jun-12 21:22N 38°53' E 001°27'1 0.0
2018-Jun-12 09:05N 38°54' E 001°27'110.3
2018-Jun-12 08:57N 38°52' E 001°27'1 0.5
2018-Jun-12 06:32N 38°51' E 001°26'3 9.3
2018-Jun-12 06:12N 38°54' E 001°27'0 1.3
2018-Jun-12 05:58N 38°54' E 001°27'0 0.0
2018-Jun-12 05:28N 38°54' E 001°27'0 0.0
2018-Jun-12 04:58N 38°54' E 001°27'0 0.0
2018-Jun-12 04:25N 38°54' E 001°27'0 0.0
2018-Jun-12 03:58N 38°54' E 001°27'0 0.0
2018-Jun-12 03:28N 38°54' E 001°27'0 0.0
2018-Jun-12 02:58N 38°54' E 001°27'0 0.0
2018-Jun-12 02:28N 38°54' E 001°27'0 0.0
2018-Jun-12 01:58N 38°54' E 001°27'0 0.0
2018-Jun-12 01:25N 38°54' E 001°27'0 0.0
2018-Jun-12 00:58N 38°54' E 001°27'0 0.0
2018-Jun-12 00:28N 38°54' E 001°27'0 0.0
2018-Jun-11 23:55N 38°54' E 001°27'0 0.0
2018-Jun-11 23:28N 38°54' E 001°27'0 0.0
2018-Jun-11 22:58N 38°54' E 001°27'0 0.0
2018-Jun-11 22:28N 38°54' E 001°27'10 2.9
2018-Jun-11 19:00N 38°44' E 001°25'  
Track history (hours):
 
Tides and Currents Weather Stations Pressure Air Temp Water Temp Dewpoint Dewpoint Depression Visibility Wind Speed Wind Dir Waves Ship Positions

Virot

Last reported at 2018-Jun-21 18:49 UTC. Time now 2018-Jun-21 19:58 UTC.
Position N 38°53' E 001°26'.

Length 64 m; draft 3.1 m.

Type: Ship. MMSI: 224810000.

Date/timePositionNaut miles runAvg speedWind from/ knotsBaromVisibWave heightAir tempDewpointWater temp
2018-Jun-21 18:49N 38°53' E 001°26'411.6
2018-Jun-21 18:26N 38°49' E 001°25'4 9.5
2018-Jun-21 17:58N 38°53' E 001°26'1 0.5
2018-Jun-21 15:21N 38°54' E 001°27'0 0.1
2018-Jun-21 12:25N 38°54' E 001°27'0 0.7
2018-Jun-21 11:55N 38°54' E 001°27'0 0.0
2018-Jun-21 09:25N 38°54' E 001°27'0 0.0
2018-Jun-21 05:43N 38°54' E 001°27'0 0.0
2018-Jun-20 21:39N 38°54' E 001°27'3 0.7
2018-Jun-20 18:04N 38°52' E 001°26'2 9.3
2018-Jun-20 17:54N 38°53' E 001°27'1 1.0
2018-Jun-20 16:50N 38°54' E 001°27'0 0.0
2018-Jun-20 15:20N 38°54' E 001°27'2 6.1
2018-Jun-20 14:57N 38°52' E 001°26'2 0.7
2018-Jun-20 11:47N 38°54' E 001°27'0 0.0
2018-Jun-20 10:14N 38°54' E 001°27'0 0.5
2018-Jun-20 09:15N 38°54' E 001°27'5 2.3
2018-Jun-20 06:54N 38°49' E 001°25'4 9.6
2018-Jun-20 06:26N 38°53' E 001°27'1 2.4
2018-Jun-20 05:55N 38°54' E 001°27'3 0.3
2018-Jun-19 18:03N 38°51' E 001°26'1 9.9
2018-Jun-19 17:59N 38°52' E 001°26'3 4.7
2018-Jun-19 17:27N 38°54' E 001°27'0 0.0
2018-Jun-19 17:01N 38°54' E 001°27'0 0.0
2018-Jun-19 16:28N 38°54' E 001°27'0 0.0
2018-Jun-19 16:00N 38°54' E 001°27'0 0.0
2018-Jun-19 15:30N 38°54' E 001°27'3 5.4
2018-Jun-19 14:58N 38°51' E 001°26'3 1.7
2018-Jun-19 13:09N 38°49' E 001°25'2 8.9
2018-Jun-19 12:53N 38°51' E 001°26'4 8.8
2018-Jun-19 12:29N 38°54' E 001°27'0 0.5
2018-Jun-19 11:58N 38°54' E 001°27'0 0.0
2018-Jun-19 11:20N 38°54' E 001°27'0 0.0
2018-Jun-19 10:58N 38°54' E 001°27'0 0.0
2018-Jun-19 10:29N 38°54' E 001°27'0 0.0
2018-Jun-19 09:58N 38°54' E 001°27'0 0.0
2018-Jun-19 09:28N 38°54' E 001°27'2 4.5
2018-Jun-19 09:00N 38°52' E 001°26'1 0.2
2018-Jun-19 06:34N 38°52' E 001°26'1 9.6
2018-Jun-19 06:29N 38°53' E 001°26'2 3.8
2018-Jun-19 06:00N 38°54' E 001°27'0 0.0
2018-Jun-19 05:27N 38°54' E 001°27'0 0.0
2018-Jun-18 21:38N 38°54' E 001°27'0 0.9
2018-Jun-18 21:23N 38°54' E 001°27'10 4.0
2018-Jun-18 18:55N 38°44' E 001°25'4 8.8
2018-Jun-18 18:24N 38°49' E 001°25'5 9.4
2018-Jun-18 17:55N 38°53' E 001°27'1 1.2
2018-Jun-18 17:06N 38°54' E 001°27'0 0.0
2018-Jun-18 17:00N 38°54' E 001°27'0 0.0
2018-Jun-18 16:26N 38°54' E 001°27'0 0.0
2018-Jun-18 16:00N 38°54' E 001°27'0 0.1
2018-Jun-18 15:12N 38°54' E 001°27'10 6.2
2018-Jun-18 13:33N 38°44' E 001°25'0 5.1
2018-Jun-18 13:30N 38°44' E 001°25'5 9.2
2018-Jun-18 12:57N 38°49' E 001°26'3 0.4
2018-Jun-18 06:18N 38°52' E 001°26'2 7.6
2018-Jun-18 06:00N 38°54' E 001°27'8 0.2
2018-Jun-16 08:18N 38°46' E 001°24'2 0.1
2018-Jun-15 18:37N 38°45' E 001°25'0 3.4
2018-Jun-15 18:29N 38°44' E 001°25'2 4.0
2018-Jun-15 17:58N 38°46' E 001°24'4 9.2
2018-Jun-15 17:29N 38°50' E 001°26'2 0.1
2018-Jun-14 06:42N 38°49' E 001°25'3 9.7
2018-Jun-14 06:27N 38°51' E 001°26'3 0.3
2018-Jun-13 21:20N 38°54' E 001°27'2 0.6
2018-Jun-13 18:05N 38°52' E 001°26'3 3.0
2018-Jun-13 17:15N 38°54' E 001°27'1 0.4
2018-Jun-13 15:09N 38°53' E 001°27'1 0.5
2018-Jun-13 12:47N 38°52' E 001°26'2 1.6
2018-Jun-13 11:26N 38°54' E 001°27'0 0.0
2018-Jun-13 10:47N 38°54' E 001°27'0 0.0
2018-Jun-13 10:17N 38°54' E 001°27'0 0.0
2018-Jun-13 09:47N 38°54' E 001°27'3 0.9
2018-Jun-13 06:23N 38°51' E 001°26'2 0.2
2018-Jun-12 21:22N 38°53' E 001°27'1 0.0
2018-Jun-12 09:05N 38°54' E 001°27'110.3
2018-Jun-12 08:57N 38°52' E 001°27'1 0.5
2018-Jun-12 06:32N 38°51' E 001°26'3 9.3
2018-Jun-12 06:12N 38°54' E 001°27'0 1.3
2018-Jun-12 05:58N 38°54' E 001°27'0 0.0
2018-Jun-12 05:28N 38°54' E 001°27'0 0.0
2018-Jun-12 04:58N 38°54' E 001°27'0 0.0
2018-Jun-12 04:25N 38°54' E 001°27'0 0.0
2018-Jun-12 03:58N 38°54' E 001°27'0 0.0
2018-Jun-12 03:28N 38°54' E 001°27'0 0.0
2018-Jun-12 02:58N 38°54' E 001°27'0 0.0
2018-Jun-12 02:28N 38°54' E 001°27'0 0.0
2018-Jun-12 01:58N 38°54' E 001°27'0 0.0
2018-Jun-12 01:25N 38°54' E 001°27'0 0.0
2018-Jun-12 00:58N 38°54' E 001°27'0 0.0
2018-Jun-12 00:28N 38°54' E 001°27'0 0.0
2018-Jun-11 23:55N 38°54' E 001°27'0 0.0
2018-Jun-11 23:28N 38°54' E 001°27'0 0.0
2018-Jun-11 22:58N 38°54' E 001°27'0 0.0
2018-Jun-11 22:28N 38°54' E 001°27'10 2.9
2018-Jun-11 19:00N 38°44' E 001°25'  

Dump ship's entire track history